Time;durP1;ratioP1;P1;durP2;ratioP2;P2;SDS_P1;SDS_P2;PMS_P1;PMS_P2;Temp;Humidity;BMP_temperature;BMP_pressure;BME280_temperature;BME280_humidity;BME280_pressure;Samples;Min_cycle;Max_cycle;Signal;HPM_P1;HPM_P2
2023/08/19 00:00:13;;;;;;;14.63;9.95;;;;;;;18.81;100.00;101043.94;4980532;28;20416;-81
2023/08/19 00:02:46;;;;;;;12.60;9.38;;;;;;;18.84;100.00;101043.31;4982637;28;20434;-81
2023/08/19 00:05:20;;;;;;;15.10;10.15;;;;;;;18.79;100.00;101043.47;4978327;28;20426;-81
2023/08/19 00:07:53;;;;;;;14.30;9.70;;;;;;;18.81;100.00;101046.69;4977649;28;20501;-81
2023/08/19 00:10:26;;;;;;;20.53;10.37;;;;;;;18.74;100.00;101043.63;4978580;28;20427;-81
2023/08/19 00:12:59;;;;;;;16.40;10.23;;;;;;;18.68;100.00;101037.50;4979582;28;20430;-81
2023/08/19 00:15:34;;;;;;;14.73;10.20;;;;;;;18.78;100.00;101030.81;4979548;28;20432;-81
2023/08/19 00:18:02;;;;;;;15.98;10.25;;;;;;;18.74;100.00;101033.44;4980663;28;20437;-81
2023/08/19 00:20:32;;;;;;;17.67;10.20;;;;;;;18.68;100.00;101040.25;4979738;28;20815;-81
2023/08/19 00:23:06;;;;;;;14.98;9.68;;;;;;;18.63;100.00;101034.88;4978847;28;21140;-81
2023/08/19 00:25:39;;;;;;;16.45;9.75;;;;;;;18.58;100.00;101029.56;4979879;28;20433;-82
2023/08/19 00:28:14;;;;;;;16.50;10.25;;;;;;;18.55;100.00;101032.94;4979219;28;20432;-81
2023/08/19 00:30:43;;;;;;;17.02;9.68;;;;;;;18.49;100.00;101024.88;4974850;28;20427;-81
2023/08/19 00:33:17;;;;;;;18.13;10.35;;;;;;;18.51;100.00;101033.59;4979043;28;20445;-81
2023/08/19 00:35:51;;;;;;;15.93;9.88;;;;;;;18.52;100.00;101024.22;4986024;28;20431;-81
2023/08/19 00:38:24;;;;;;;16.23;9.88;;;;;;;18.50;100.00;101022.91;4995142;28;20785;-81
2023/08/19 00:40:57;;;;;;;17.00;9.80;;;;;;;18.49;100.00;101026.78;4994362;28;20443;-81
2023/08/19 00:43:31;;;;;;;13.95;9.93;;;;;;;18.45;100.00;101029.41;4979607;28;20431;-81
2023/08/19 00:46:07;;;;;;;16.75;10.43;;;;;;;18.47;100.00;101029.88;4978687;28;20412;-81
2023/08/19 00:48:41;;;;;;;16.30;10.50;;;;;;;18.48;100.00;101034.25;4977585;28;20445;-82
2023/08/19 00:51:17;;;;;;;14.32;10.20;;;;;;;18.48;100.00;101034.25;4979591;28;20419;-81
2023/08/19 00:53:46;;;;;;;19.58;10.90;;;;;;;18.49;100.00;101035.06;4976211;28;20414;-81
2023/08/19 00:56:19;;;;;;;15.68;10.20;;;;;;;18.49;100.00;101032.31;4994846;28;20432;-82
2023/08/19 00:58:52;;;;;;;15.68;10.52;;;;;;;18.68;100.00;101030.03;4977288;28;20486;-82
2023/08/19 01:01:23;;;;;;;14.93;10.52;;;;;;;18.64;100.00;101034.59;4978241;28;20429;-81
2023/08/19 01:03:56;;;;;;;15.10;10.50;;;;;;;18.55;100.00;101032.94;4974484;28;21130;-81
2023/08/19 01:06:37;;;;;;;15.27;10.20;;;;;;;18.52;100.00;101040.75;4984232;28;20422;-81
2023/08/19 01:09:27;;;;;;;14.65;10.75;;;;;;;18.49;100.00;101029.56;4978847;28;20407;-81
2023/08/19 01:12:06;;;;;;;14.88;10.60;;;;;;;18.49;100.00;101029.56;4976489;28;20496;-81
2023/08/19 01:14:48;;;;;;;14.50;9.57;;;;;;;18.45;100.00;101028.59;4986057;28;20773;-81
2023/08/19 01:17:27;;;;;;;14.90;10.40;;;;;;;18.33;100.00;101035.56;4974606;28;20432;-81
2023/08/19 01:20:01;;;;;;;15.87;10.17;;;;;;;18.43;100.00;101039.13;4992462;28;20962;-81
2023/08/19 01:22:39;;;;;;;15.85;10.50;;;;;;;18.31;100.00;101029.56;4984143;28;20433;-81
2023/08/19 01:25:14;;;;;;;18.92;10.88;;;;;;;18.30;100.00;101011.41;4982157;28;20442;-81
2023/08/19 01:27:47;;;;;;;18.23;10.55;;;;;;;18.34;100.00;101014.34;4977010;28;20419;-81
2023/08/19 01:30:21;;;;;;;17.07;11.20;;;;;;;18.56;100.00;101021.63;4985311;28;20420;-81
2023/08/19 01:32:54;;;;;;;14.40;10.55;;;;;;;18.43;100.00;101028.09;4984273;28;20785;-82
2023/08/19 01:35:22;;;;;;;16.02;11.38;;;;;;;18.39;100.00;101018.88;4978886;28;20769;-82
2023/08/19 01:38:00;;;;;;;16.50;10.95;;;;;;;18.35;100.00;101018.69;4981959;28;20439;-83
2023/08/19 01:40:36;;;;;;;15.75;10.73;;;;;;;18.35;100.00;101015.94;4979735;28;20422;-85
2023/08/19 01:43:11;;;;;;;16.50;10.90;;;;;;;18.30;100.00;101019.69;4984672;28;20442;-84
2023/08/19 01:45:45;;;;;;;16.40;11.40;;;;;;;18.42;100.00;101016.28;4985351;28;20430;-84
2023/08/19 01:48:13;;;;;;;16.93;11.30;;;;;;;18.31;100.00;101015.81;4979408;28;20412;-82
2023/08/19 01:50:46;;;;;;;16.60;11.13;;;;;;;18.34;100.00;101022.63;4987009;28;20430;-84
2023/08/19 01:53:14;;;;;;;18.98;11.52;;;;;;;18.32;100.00;101011.88;4976952;28;20430;-82
2023/08/19 01:55:49;;;;;;;17.13;11.43;;;;;;;18.25;100.00;101005.25;4976518;28;20437;-83
2023/08/19 01:58:17;;;;;;;16.10;11.30;;;;;;;18.28;100.00;101012.88;4975936;28;20432;-83
2023/08/19 02:00:50;;;;;;;16.95;11.38;;;;;;;18.20;100.00;101006.22;4977093;28;20775;-84
2023/08/19 02:03:23;;;;;;;15.90;10.87;;;;;;;18.27;100.00;101011.25;4975283;28;20428;-83
2023/08/19 02:05:57;;;;;;;17.67;10.98;;;;;;;18.54;100.00;101007.34;4974161;28;20422;-83
2023/08/19 02:08:30;;;;;;;17.08;11.05;;;;;;;18.36;100.00;101010.09;4983478;28;20428;-84
2023/08/19 02:11:05;;;;;;;16.10;10.48;;;;;;;18.29;100.00;101006.22;4977635;28;20424;-83
2023/08/19 02:13:38;;;;;;;17.42;11.18;;;;;;;18.21;100.00;101007.03;4982064;28;20437;-84
2023/08/19 02:16:11;;;;;;;19.70;11.30;;;;;;;18.35;100.00;101004.94;4982043;28;20429;-82
2023/08/19 02:18:44;;;;;;;17.60;11.15;;;;;;;18.20;100.00;101000.72;4981332;28;20445;-83
2023/08/19 02:21:17;;;;;;;17.15;10.35;;;;;;;18.28;100.00;100997.16;4980701;28;21132;-83
2023/08/19 02:23:51;;;;;;;19.08;10.80;;;;;;;18.18;100.00;101001.03;4981585;28;20791;-83
2023/08/19 02:26:25;;;;;;;16.30;11.10;;;;;;;18.13;100.00;101003.16;4981480;28;20436;-83
2023/08/19 02:28:59;;;;;;;17.58;11.10;;;;;;;18.13;100.00;101009.47;4983483;28;20439;-84
2023/08/19 02:31:27;;;;;;;18.20;11.27;;;;;;;18.36;100.00;101012.88;4980384;28;20418;-83
2023/08/19 02:34:00;;;;;;;15.90;10.57;;;;;;;18.26;100.00;101013.19;4981359;28;20425;-84
2023/08/19 02:36:29;;;;;;;16.80;10.83;;;;;;;18.16;100.00;101011.59;4980866;28;20898;-85
2023/08/19 02:39:02;;;;;;;15.55;10.35;;;;;;;18.15;100.00;101006.41;4983800;28;20422;-83
2023/08/19 02:41:36;;;;;;;17.50;11.40;;;;;;;18.14;100.00;101002.81;4977873;28;20463;-83
2023/08/19 02:44:10;;;;;;;15.35;11.55;;;;;;;18.05;100.00;100999.25;4976305;28;21070;-84
2023/08/19 02:46:43;;;;;;;18.63;11.37;;;;;;;18.00;100.00;101002.97;4979023;28;20435;-84
2023/08/19 02:49:11;;;;;;;17.05;10.98;;;;;;;17.98;100.00;101008.00;4984217;28;20449;-83
2023/08/19 02:51:44;;;;;;;16.75;11.10;;;;;;;17.94;100.00;101009.78;4980695;28;20438;-84
2023/08/19 02:54:17;;;;;;;17.88;10.80;;;;;;;17.95;100.00;101003.16;4979335;28;20498;-84
2023/08/19 02:56:52;;;;;;;18.98;11.18;;;;;;;17.93;100.00;101010.91;4978630;28;20431;-84
2023/08/19 02:59:25;;;;;;;15.57;10.93;;;;;;;17.88;100.00;101011.00;4987875;28;20450;-84
2023/08/19 03:01:58;;;;;;;17.65;11.10;;;;;;;17.90;100.00;101014.28;4985995;28;20439;-84
2023/08/19 03:04:31;;;;;;;15.93;10.80;;;;;;;17.90;100.00;101013.44;4994517;28;20432;-84
2023/08/19 03:07:05;;;;;;;16.45;11.40;;;;;;;17.88;100.00;101004.72;4992189;28;20440;-85
2023/08/19 03:09:33;;;;;;;17.63;10.73;;;;;;;17.85;100.00;101003.41;4984227;28;20412;-84
2023/08/19 03:12:02;;;;;;;17.17;10.75;;;;;;;17.80;100.00;101009.06;4977932;28;20424;-84
2023/08/19 03:14:30;;;;;;;15.98;10.50;;;;;;;17.81;100.00;101010.69;4981680;28;20411;-83
2023/08/19 03:17:04;;;;;;;16.30;10.48;;;;;;;17.92;100.00;101014.78;4987155;28;20928;-84
2023/08/19 03:19:32;;;;;;;18.27;10.20;;;;;;;17.81;100.00;101005.97;4981281;28;20428;-83
2023/08/19 03:22:05;;;;;;;16.23;10.23;;;;;;;17.97;100.00;101008.31;4979002;28;20420;-87
2023/08/19 03:24:33;;;;;;;16.37;9.93;;;;;;;18.13;100.00;101003.97;4982047;28;20804;-84
2023/08/19 03:27:04;;;;;;;15.47;9.97;;;;;;;18.01;100.00;101003.78;4981233;28;20428;-81
2023/08/19 03:29:38;;;;;;;14.47;9.97;;;;;;;17.99;100.00;101001.38;4982384;28;20900;-79
2023/08/19 03:32:07;;;;;;;16.08;9.77;;;;;;;17.88;100.00;101004.72;4979970;28;20420;-80
2023/08/19 03:34:35;;;;;;;17.13;10.15;;;;;;;17.87;100.00;101014.94;4991345;28;20906;-79
2023/08/19 03:37:04;;;;;;;14.97;9.60;;;;;;;17.74;100.00;101005.66;4984482;28;20879;-79
2023/08/19 03:39:32;;;;;;;15.75;10.02;;;;;;;17.77;100.00;101007.78;4978630;28;20939;-78
2023/08/19 03:42:07;;;;;;;17.00;10.23;;;;;;;17.72;100.00;100999.66;4990434;28;20427;-80
2023/08/19 03:44:40;;;;;;;16.30;9.98;;;;;;;17.65;100.00;100997.38;4986957;28;20457;-79
2023/08/19 03:47:14;;;;;;;17.00;10.33;;;;;;;17.62;100.00;101003.53;4981189;28;20414;-78
2023/08/19 03:49:47;;;;;;;15.57;10.50;;;;;;;17.55;100.00;100997.66;4978113;28;20420;-79
2023/08/19 03:52:15;;;;;;;17.20;10.27;;;;;;;17.57;100.00;101008.38;4979508;28;20431;-81
2023/08/19 03:54:50;;;;;;;17.03;10.43;;;;;;;17.56;100.00;101012.25;4983326;28;20549;-79
2023/08/19 03:57:20;;;;;;;17.08;10.68;;;;;;;17.53;100.00;101007.41;4981148;28;20453;-78
2023/08/19 03:59:54;;;;;;;16.77;10.30;;;;;;;17.54;100.00;101012.56;4981520;28;20431;-80
2023/08/19 04:02:22;;;;;;;19.20;10.63;;;;;;;17.49;100.00;101007.22;4978136;28;20419;-78
2023/08/19 04:05:03;;;;;;;18.85;10.25;;;;;;;17.54;100.00;101011.75;4982701;28;20424;-81
2023/08/19 04:07:32;;;;;;;17.85;10.20;;;;;;;17.49;100.00;101012.72;4977000;28;20443;-79
2023/08/19 04:10:00;;;;;;;16.05;10.27;;;;;;;17.44;100.00;101016.44;4979884;28;20425;-79
2023/08/19 04:12:30;;;;;;;14.75;9.88;;;;;;;17.42;100.00;101009.63;4987296;28;20884;-78
2023/08/19 04:15:04;;;;;;;17.27;10.93;;;;;;;17.63;100.00;101004.34;4978122;28;20424;-82
2023/08/19 04:17:38;;;;;;;19.63;10.98;;;;;;;17.50;100.00;101009.63;4988584;28;20792;-81
2023/08/19 04:20:09;;;;;;;17.73;11.10;;;;;;;17.42;100.00;101004.91;4980808;28;20441;-80
2023/08/19 04:22:42;;;;;;;15.70;10.02;;;;;;;17.40;100.00;101009.94;4980754;28;20424;-81
2023/08/19 04:25:15;;;;;;;17.25;10.60;;;;;;;17.36;100.00;101010.88;4980004;28;20456;-80
2023/08/19 04:27:45;;;;;;;17.58;11.02;;;;;;;17.37;100.00;101013.31;4981132;28;20434;-80
2023/08/19 04:30:14;;;;;;;16.10;10.93;;;;;;;17.35;100.00;101018.31;4974695;28;20424;-81
2023/08/19 04:32:48;;;;;;;15.98;11.02;;;;;;;17.38;100.00;101014.13;4980786;28;20429;-80
2023/08/19 04:35:28;;;;;;;19.40;10.77;;;;;;;17.30;100.00;101008.28;4993919;28;20900;-81
2023/08/19 04:38:03;;;;;;;19.83;11.48;;;;;;;17.33;100.00;101009.56;4979563;28;20916;-81
2023/08/19 04:40:33;;;;;;;17.17;11.02;;;;;;;17.31;100.00;101007.13;4984862;28;20432;-79
2023/08/19 04:43:03;;;;;;;18.55;11.52;;;;;;;17.35;100.00;101010.06;4975054;28;20435;-79
2023/08/19 04:45:38;;;;;;;16.33;11.57;;;;;;;17.40;100.00;101009.09;4981955;28;20410;-79
2023/08/19 04:48:07;;;;;;;17.55;11.75;;;;;;;17.49;100.00;100998.94;4979724;28;20439;-79
2023/08/19 04:50:36;;;;;;;17.53;11.63;;;;;;;17.46;100.00;101005.91;4983449;28;20408;-80
2023/08/19 04:53:07;;;;;;;19.48;11.88;;;;;;;17.48;100.00;101005.56;4981123;28;20434;-82
2023/08/19 04:55:40;;;;;;;18.88;11.60;;;;;;;17.46;100.00;101003.16;4992108;28;20416;-80
2023/08/19 04:58:15;;;;;;;17.05;11.65;;;;;;;17.45;100.00;101004.28;4985375;28;21099;-83
2023/08/19 05:00:43;;;;;;;15.55;11.40;;;;;;;17.55;100.00;101005.13;4983502;28;20439;-82
2023/08/19 05:03:13;;;;;;;19.83;12.23;;;;;;;17.51;100.00;101004.94;4978039;28;20440;-79
2023/08/19 05:05:41;;;;;;;18.75;12.40;;;;;;;17.59;100.00;101003.34;4987075;28;20434;-79
2023/08/19 05:08:10;;;;;;;19.13;11.98;;;;;;;17.70;100.00;101007.41;4982253;28;20430;-79
2023/08/19 05:10:38;;;;;;;18.60;12.75;;;;;;;18.36;100.00;101001.84;4983016;28;20456;-79
2023/08/19 05:13:09;;;;;;;17.55;12.23;;;;;;;19.14;100.00;101007.56;4983606;28;20427;-81
2023/08/19 05:15:39;;;;;;;15.07;10.98;;;;;;;19.74;100.00;101026.94;4989531;28;20464;-80
2023/08/19 05:18:13;;;;;;;15.43;10.07;;;;;;;20.43;100.00;101027.63;4983097;28;20507;-80
2023/08/19 05:20:41;;;;;;;15.55;9.75;;;;;;;20.51;100.00;101035.81;4982301;28;20821;-81
2023/08/19 05:23:15;;;;;;;13.17;9.97;;;;;;;21.23;100.00;101032.81;4980848;28;20441;-80
2023/08/19 05:25:48;;;;;;;14.63;9.23;;;;;;;21.32;100.00;101031.91;4986065;28;20955;-80
2023/08/19 05:28:21;;;;;;;13.83;9.20;;;;;;;20.73;100.00;101040.19;4982562;28;20791;-79
2023/08/19 05:30:51;;;;;;;15.27;9.40;;;;;;;19.83;100.00;101030.47;4982293;28;20785;-80
2023/08/19 05:33:19;;;;;;;14.27;9.27;;;;;;;19.64;100.00;101033.66;4987796;28;20430;-83
2023/08/19 05:35:52;;;;;;;13.95;9.75;;;;;;;19.53;100.00;101035.97;4987341;28;20770;-80
2023/08/19 05:38:20;;;;;;;15.80;10.55;;;;;;;19.28;100.00;101026.66;4977701;28;20435;-80
2023/08/19 05:40:53;;;;;;;14.25;10.35;;;;;;;19.10;100.00;101028.66;5002489;28;20434;-80
2023/08/19 05:43:28;;;;;;;18.42;11.55;;;;;;;19.00;100.00;101029.81;4980450;28;20509;-80
2023/08/19 05:45:58;;;;;;;15.50;11.90;;;;;;;18.99;100.00;101029.03;4982291;28;20898;-81
2023/08/19 05:48:26;;;;;;;16.77;11.60;;;;;;;19.00;100.00;101027.06;4985150;28;20427;-80
2023/08/19 05:50:55;;;;;;;15.88;11.73;;;;;;;18.96;100.00;101024.19;4990066;28;20427;-79
2023/08/19 05:53:28;;;;;;;16.58;12.18;;;;;;;19.10;100.00;101031.41;4985301;28;20427;-79
2023/08/19 05:56:01;;;;;;;16.70;12.27;;;;;;;18.99;100.00;101036.50;4988819;28;20427;-79
2023/08/19 05:58:35;;;;;;;17.70;12.90;;;;;;;19.24;100.00;101023.75;4979991;28;20424;-86
2023/08/19 06:01:06;;;;;;;20.05;12.73;;;;;;;19.18;100.00;101033.34;4985469;28;20424;-83
2023/08/19 06:03:35;;;;;;;19.00;12.63;;;;;;;19.15;100.00;101026.53;4986979;28;20439;-80
2023/08/19 06:06:04;;;;;;;18.70;12.07;;;;;;;19.28;100.00;101024.72;4987900;28;20890;-79
2023/08/19 06:08:32;;;;;;;18.98;12.32;;;;;;;19.36;100.00;101015.59;4987988;28;20426;-79
2023/08/19 06:11:06;;;;;;;16.95;12.70;;;;;;;19.40;100.00;101021.25;4991873;28;20978;-79
2023/08/19 06:13:40;;;;;;;19.85;13.15;;;;;;;19.41;100.00;101022.88;4989136;28;20433;-79
2023/08/19 06:16:09;;;;;;;19.08;12.68;;;;;;;19.43;100.00;101023.38;4988188;28;20518;-79
2023/08/19 06:18:38;;;;;;;18.23;13.27;;;;;;;19.42;100.00;101027.25;4996274;28;20454;-79
2023/08/19 06:21:12;;;;;;;19.95;13.32;;;;;;;19.63;100.00;101029.28;4991559;28;20453;-80
2023/08/19 06:23:45;;;;;;;16.90;12.82;;;;;;;19.76;100.00;101039.28;4988768;28;20431;-79
2023/08/19 06:26:14;;;;;;;16.77;12.38;;;;;;;19.77;100.00;101040.06;5005499;28;20430;-79
2023/08/19 06:28:47;;;;;;;18.67;12.38;;;;;;;19.71;100.00;101033.94;4986488;28;20808;-80
2023/08/19 06:31:17;;;;;;;18.57;13.27;;;;;;;19.63;100.00;101037.56;4985962;28;20414;-81
2023/08/19 06:33:46;;;;;;;17.80;12.60;;;;;;;19.74;100.00;101035.22;4987028;28;20420;-78
2023/08/19 06:36:17;;;;;;;22.35;13.35;;;;;;;19.83;100.00;101036.00;4979878;28;20430;-83
2023/08/19 06:38:58;;;;;;;19.02;13.45;;;;;;;19.98;100.00;101034.59;4987628;28;20447;-80
2023/08/19 06:41:26;;;;;;;17.85;12.98;;;;;;;19.96;100.00;101039.66;4981668;28;20428;-79
2023/08/19 06:43:57;;;;;;;18.15;13.27;;;;;;;20.19;100.00;101040.97;4978973;28;21122;-78
2023/08/19 06:46:32;;;;;;;16.35;12.63;;;;;;;20.46;100.00;101038.00;4982008;28;20435;-79
2023/08/19 06:49:06;;;;;;;17.17;12.68;;;;;;;20.39;100.00;101030.22;4977318;28;20431;-80
2023/08/19 06:51:40;;;;;;;17.70;13.07;;;;;;;20.48;100.00;101043.97;4986035;28;20416;-82
2023/08/19 06:54:16;;;;;;;17.60;12.73;;;;;;;20.49;100.00;101043.63;4991636;28;20441;-86
2023/08/19 06:56:54;;;;;;;19.35;13.07;;;;;;;20.80;100.00;101045.19;4981173;28;21207;-81
2023/08/19 06:59:35;;;;;;;18.70;12.27;;;;;;;20.60;100.00;101055.09;4988210;28;20438;-79
2023/08/19 07:02:12;;;;;;;16.42;11.98;;;;;;;20.49;100.00;101045.59;4985739;28;20517;-81
2023/08/19 07:04:49;;;;;;;19.27;13.52;;;;;;;20.42;100.00;101050.88;4991989;28;20422;-80
2023/08/19 07:07:21;;;;;;;21.70;13.82;;;;;;;20.46;100.00;101047.06;4989863;28;20427;-80
2023/08/19 07:09:50;;;;;;;17.33;13.32;;;;;;;20.44;100.00;101038.31;4986036;28;20433;-80
2023/08/19 07:12:23;;;;;;;17.85;13.65;;;;;;;20.71;100.00;101047.22;4990493;28;20430;-79
2023/08/19 07:14:57;;;;;;;18.90;13.40;;;;;;;21.09;100.00;101039.81;4988020;28;20496;-84
2023/08/19 07:17:30;;;;;;;17.45;12.68;;;;;;;21.30;100.00;101056.38;4981235;28;20450;-82
2023/08/19 07:19:59;;;;;;;17.20;12.95;;;;;;;21.14;100.00;101061.75;5000028;28;20435;-88
2023/08/19 07:22:30;;;;;;;16.80;12.88;;;;;;;21.16;100.00;101060.25;4987547;28;20430;-82
2023/08/19 07:25:06;;;;;;;15.18;12.40;;;;;;;21.21;100.00;101059.22;4980689;28;20432;-82
2023/08/19 07:27:35;;;;;;;17.58;12.93;;;;;;;21.19;100.00;101061.53;4981258;28;20793;-83
2023/08/19 07:30:09;;;;;;;16.33;12.77;;;;;;;21.26;100.00;101058.22;4985791;28;20434;-82
2023/08/19 07:32:45;;;;;;;16.88;13.20;;;;;;;21.38;100.00;101063.75;4978930;28;20423;-82
2023/08/19 07:35:18;;;;;;;17.10;12.55;;;;;;;21.32;100.00;101057.66;4988385;28;20426;-82
2023/08/19 07:37:51;;;;;;;18.45;12.98;;;;;;;21.30;100.00;101065.47;4976858;28;20432;-82
2023/08/19 07:40:24;;;;;;;15.50;12.30;;;;;;;21.43;100.00;101060.75;4984861;28;20803;-82
2023/08/19 07:42:52;;;;;;;17.13;13.17;;;;;;;21.45;100.00;101060.41;4985426;28;20437;-83
2023/08/19 07:45:26;;;;;;;21.33;12.90;;;;;;;21.57;100.00;101052.97;4987140;28;20461;-82
2023/08/19 07:47:55;;;;;;;18.58;15.15;;;;;;;21.57;100.00;101055.72;4985105;28;20433;-82
2023/08/19 07:50:29;;;;;;;17.15;13.50;;;;;;;21.59;100.00;101047.06;4980875;28;21000;-84
2023/08/19 07:53:02;;;;;;;17.90;12.50;;;;;;;22.16;100.00;101052.78;4987411;28;20435;-88
2023/08/19 07:55:31;;;;;;;16.60;12.25;;;;;;;22.41;100.00;101062.69;4988658;28;20428;-83
2023/08/19 07:58:05;;;;;;;15.93;12.82;;;;;;;22.27;100.00;101062.22;4995244;28;21208;-82
2023/08/19 08:00:38;;;;;;;16.33;11.93;;;;;;;22.48;100.00;101062.06;4982005;28;20418;-82
2023/08/19 08:03:12;;;;;;;17.07;11.87;;;;;;;22.55;100.00;101058.69;4984965;28;20797;-83
2023/08/19 08:05:43;;;;;;;15.32;11.95;;;;;;;22.58;100.00;101053.25;4986947;28;20418;-86
2023/08/19 08:08:11;;;;;;;15.52;12.00;;;;;;;22.68;100.00;101057.47;4985200;28;20432;-83
2023/08/19 08:10:40;;;;;;;16.25;11.57;;;;;;;22.65;100.00;101047.09;4987183;28;21048;-85
2023/08/19 08:13:09;;;;;;;17.15;11.73;;;;;;;22.80;100.00;101053.03;4988645;28;20792;-81
2023/08/19 08:15:37;;;;;;;16.02;12.20;;;;;;;22.78;100.00;101049.81;4983559;28;20775;-81
2023/08/19 08:18:11;;;;;;;16.00;12.20;;;;;;;22.70;100.00;101046.84;4991506;28;20416;-85
2023/08/19 08:20:40;;;;;;;15.23;12.02;;;;;;;23.08;100.00;101047.44;4987332;28;20417;-82
2023/08/19 08:23:09;;;;;;;15.35;11.63;;;;;;;23.23;100.00;101043.91;4985583;28;20431;-82
2023/08/19 08:25:37;;;;;;;16.02;11.52;;;;;;;22.89;100.00;101048.13;4988389;28;20741;-82
2023/08/19 08:28:10;;;;;;;16.63;12.43;;;;;;;22.95;100.00;101046.69;4993277;28;20437;-86
2023/08/19 08:30:44;;;;;;;17.17;11.93;;;;;;;22.86;100.00;101043.31;4983971;28;20805;-81
2023/08/19 08:33:19;;;;;;;16.23;11.95;;;;;;;22.92;100.00;101036.31;4992100;28;20428;-80
2023/08/19 08:35:49;;;;;;;16.17;11.32;;;;;;;23.36;100.00;101041.03;4986735;28;20429;-85
2023/08/19 08:38:17;;;;;;;17.42;12.02;;;;;;;23.53;100.00;101031.53;4997475;28;20427;-81
2023/08/19 08:40:46;;;;;;;15.43;11.23;;;;;;;23.58;100.00;101039.59;4985159;28;20423;-85
2023/08/19 08:43:19;;;;;;;14.53;11.90;;;;;;;23.57;100.00;101036.03;4987088;28;20449;-87
2023/08/19 08:45:54;;;;;;;14.25;11.75;;;;;;;23.30;100.00;101046.06;4987030;28;20423;-82
2023/08/19 08:48:23;;;;;;;16.60;12.10;;;;;;;23.48;100.00;101040.94;4981008;28;20434;-80
2023/08/19 08:50:59;;;;;;;16.90;12.10;;;;;;;23.34;100.00;101041.41;4985894;28;20418;-81
2023/08/19 08:53:33;;;;;;;15.53;12.27;;;;;;;23.24;100.00;101041.94;4992094;28;20421;-82
2023/08/19 08:56:02;;;;;;;17.50;12.43;;;;;;;23.79;100.00;101047.63;5001396;28;20445;-84
2023/08/19 08:58:35;;;;;;;14.95;11.50;;;;;;;23.74;100.00;101045.94;4984314;28;20437;-80
2023/08/19 09:01:08;;;;;;;14.20;11.10;;;;;;;23.90;100.00;101053.47;5005332;28;20902;-82
2023/08/19 09:03:39;;;;;;;16.90;11.37;;;;;;;23.84;100.00;101054.88;4990064;28;20430;-83
2023/08/19 09:06:16;;;;;;;14.00;11.68;;;;;;;23.65;100.00;101052.84;4982033;28;20439;-81
2023/08/19 09:08:58;;;;;;;17.08;12.27;;;;;;;23.54;100.00;101047.81;4984156;28;20434;-81
2023/08/19 09:11:36;;;;;;;15.07;11.40;;;;;;;24.02;100.00;101052.53;4982431;28;20410;-80
2023/08/19 09:14:14;;;;;;;15.75;11.50;;;;;;;23.75;100.00;101050.34;4984664;28;20418;-81
2023/08/19 09:16:43;;;;;;;17.67;11.43;;;;;;;24.25;100.00;101058.19;4979585;28;20801;-86
2023/08/19 09:19:16;;;;;;;14.88;11.18;;;;;;;24.19;100.00;101052.09;4985407;28;20789;-81
2023/08/19 09:21:50;;;;;;;14.40;11.13;;;;;;;24.16;100.00;101055.63;4995823;28;20420;-80
2023/08/19 09:24:19;;;;;;;16.33;11.30;;;;;;;24.13;100.00;101038.84;4988110;28;20486;-80
2023/08/19 09:26:56;;;;;;;18.13;11.20;;;;;;;24.22;100.00;101045.03;4982380;28;20431;-80
2023/08/19 09:29:30;;;;;;;16.07;11.33;;;;;;;24.36;100.00;101050.06;4990710;28;20427;-82
2023/08/19 09:31:59;;;;;;;13.93;11.32;;;;;;;24.41;100.00;101045.03;4980818;28;20419;-80
2023/08/19 09:34:32;;;;;;;15.93;11.27;;;;;;;24.35;100.00;101045.72;4989136;28;20430;-80
2023/08/19 09:37:03;;;;;;;14.25;10.93;;;;;;;24.42;100.00;101038.28;4995157;28;20796;-81
2023/08/19 09:39:34;;;;;;;12.80;10.57;;;;;;;24.62;100.00;101035.53;4989809;28;21100;-86
2023/08/19 09:42:10;;;;;;;15.25;10.65;;;;;;;24.89;100.00;101021.72;4989701;28;21121;-81
2023/08/19 09:44:44;;;;;;;13.75;10.40;;;;;;;24.50;100.00;101018.97;4980794;28;20428;-80
2023/08/19 09:47:17;;;;;;;14.20;10.48;;;;;;;24.38;100.00;101015.16;4994343;28;20436;-81
2023/08/19 09:49:52;;;;;;;16.70;10.63;;;;;;;24.20;100.00;101022.34;4985200;28;20443;-81
2023/08/19 09:52:26;;;;;;;14.15;10.18;;;;;;;24.21;100.00;101021.97;4991482;28;20431;-81
2023/08/19 09:54:55;;;;;;;14.73;10.85;;;;;;;24.43;100.00;101034.34;4983754;28;20428;-80
2023/08/19 09:57:33;;;;;;;13.77;10.25;;;;;;;25.09;100.00;101028.03;4991833;28;20433;-81
2023/08/19 10:00:07;;;;;;;15.45;10.77;;;;;;;24.76;100.00;101026.66;4977604;28;20448;-81
2023/08/19 10:02:40;;;;;;;16.77;10.63;;;;;;;24.72;100.00;101023.00;4994889;28;20437;-81
2023/08/19 10:05:14;;;;;;;13.18;10.52;;;;;;;24.65;100.00;101020.06;4987139;28;20426;-80
2023/08/19 10:07:50;;;;;;;14.02;11.10;;;;;;;25.02;100.00;101022.34;4986533;28;20438;-86
2023/08/19 10:10:21;;;;;;;13.35;10.68;;;;;;;24.88;100.00;101017.34;4986387;28;20453;-80
2023/08/19 10:12:51;;;;;;;14.18;10.77;;;;;;;24.84;100.00;101013.69;4974726;28;20794;-82
2023/08/19 10:15:27;;;;;;;14.05;11.10;;;;;;;25.05;100.00;101005.72;4981852;28;20422;-86
2023/08/19 10:18:06;;;;;;;13.43;10.63;;;;;;;25.00;100.00;101008.00;4971096;28;20430;-86
2023/08/19 10:20:41;;;;;;;14.25;11.05;;;;;;;25.50;100.00;101016.41;4966598;28;20957;-86
2023/08/19 10:23:11;;;;;;;12.63;10.27;;;;;;;25.25;100.00;101016.78;4966007;28;20438;-81
2023/08/19 10:25:41;;;;;;;15.55;10.60;;;;;;;25.15;100.00;101014.59;4969715;28;20445;-84
2023/08/19 10:28:12;;;;;;;13.07;10.13;;;;;;;25.09;100.00;101012.16;4985148;28;20446;-82
2023/08/19 10:30:45;;;;;;;15.57;11.05;;;;;;;25.03;100.00;101010.03;4968084;28;20787;-83
2023/08/19 10:33:29;;;;;;;17.60;11.65;;;;;;;24.96;100.00;101005.94;4971846;28;20426;-82
2023/08/19 10:36:04;;;;;;;14.80;10.20;;;;;;;25.04;100.00;100998.53;4971007;28;20426;-83
2023/08/19 10:38:47;;;;;;;15.93;10.75;;;;;;;25.28;100.00;101000.09;4972975;28;20438;-84
2023/08/19 10:41:26;;;;;;;16.13;10.77;;;;;;;25.28;100.00;100996.53;4967805;28;20462;-83
2023/08/19 10:43:57;;;;;;;13.27;10.20;;;;;;;25.28;100.00;100996.53;4991380;28;20442;-83
2023/08/19 10:46:34;;;;;;;15.55;10.93;;;;;;;25.29;100.00;100998.94;4990764;28;20933;-83
2023/08/19 10:49:02;;;;;;;18.02;10.38;;;;;;;25.33;100.00;100995.44;4973971;28;20580;-86
2023/08/19 10:51:50;;;;;;;15.32;10.80;;;;;;;25.42;100.00;101004.34;4982617;28;20465;-80
2023/08/19 10:54:34;;;;;;;14.45;10.73;;;;;;;25.63;100.00;100998.28;4969197;28;20427;-81
2023/08/19 10:57:12;;;;;;;15.20;11.43;;;;;;;25.69;100.00;100994.00;4969024;28;20442;-81
2023/08/19 10:59:41;;;;;;;16.50;11.73;;;;;;;25.51;100.00;101004.88;4967262;28;20434;-82
2023/08/19 11:02:15;;;;;;;22.83;10.30;;;;;;;25.55;100.00;101002.13;4965719;28;20807;-82
2023/08/19 11:04:44;;;;;;;13.07;10.40;;;;;;;25.41;100.00;100999.94;4981975;28;20434;-86
2023/08/19 11:07:18;;;;;;;13.75;10.93;;;;;;;25.60;100.00;101008.22;4968750;28;20443;-88
2023/08/19 11:09:54;;;;;;;16.58;10.45;;;;;;;25.96;100.00;100999.53;4967321;28;20824;-84
2023/08/19 11:12:29;;;;;;;16.92;10.70;;;;;;;25.96;100.00;100993.97;4983212;28;20511;-88
2023/08/19 11:15:03;;;;;;;17.80;12.73;;;;;;;25.91;100.00;100991.53;4970540;28;20422;-84
2023/08/19 11:17:36;;;;;;;13.95;11.48;;;;;;;25.93;100.00;100992.72;4963112;28;21008;-83
2023/08/19 11:20:11;;;;;;;15.82;10.98;;;;;;;25.96;100.00;100978.06;4963719;28;20426;-82
2023/08/19 11:22:43;;;;;;;13.97;10.43;;;;;;;25.94;100.00;100976.81;4967417;28;20526;-84
2023/08/19 11:25:13;;;;;;;12.03;10.40;;;;;;;25.91;100.00;100972.81;4968122;28;20434;-85